Time;durP1;ratioP1;P1;durP2;ratioP2;P2;SDS_P1;SDS_P2;PMS_P1;PMS_P2;Temp;Humidity;BMP_temperature;BMP_pressure;BME280_temperature;BME280_humidity;BME280_pressure;Samples;Min_cycle;Max_cycle;Signal;HPM_P1;HPM_P2
2023/10/15 00:02:14;;;;;;;4.70;1.13;;;;;;;10.09;87.91;148669.06;4937633;28;20298;-59
2023/10/15 00:04:41;;;;;;;5.00;1.37;;;;;;;10.11;89.89;148672.78;4940789;28;20245;-58
2023/10/15 00:07:07;;;;;;;8.73;1.53;;;;;;;10.21;89.61;148697.69;4943211;29;20235;-58
2023/10/15 00:09:34;;;;;;;6.90;1.27;;;;;;;10.16;92.38;148686.50;4940215;28;20250;-58
2023/10/15 00:12:00;;;;;;;7.53;1.40;;;;;;;10.16;90.75;148686.50;4941244;28;20237;-57
2023/10/15 00:14:27;;;;;;;8.10;1.43;;;;;;;10.17;91.46;148687.72;4941555;29;20235;-56
2023/10/15 00:16:55;;;;;;;4.63;1.17;;;;;;;10.16;93.32;148685.22;4940458;28;20251;-58
2023/10/15 00:19:22;;;;;;;10.53;1.20;;;;;;;10.12;93.78;148676.53;4944715;28;20249;-59
2023/10/15 00:21:48;;;;;;;6.37;1.20;;;;;;;10.14;93.53;148681.53;4936025;28;20338;-58
2023/10/15 00:24:15;;;;;;;7.33;1.13;;;;;;;10.13;91.12;148677.75;4941361;28;20753;-59
2023/10/15 00:26:44;;;;;;;8.77;1.57;;;;;;;10.15;90.66;148684.00;4938180;28;20228;-59
2023/10/15 00:29:11;;;;;;;8.30;1.20;;;;;;;10.17;91.83;148687.72;4943796;28;20238;-59
2023/10/15 00:31:41;;;;;;;5.20;1.35;;;;;;;10.18;93.47;148691.47;4946567;29;21044;-58
2023/10/15 00:34:12;;;;;;;7.77;1.40;;;;;;;10.17;93.88;148689.00;4940531;28;20250;-58
2023/10/15 00:36:39;;;;;;;4.13;1.07;;;;;;;10.18;94.39;148690.22;4948047;28;20241;-59
2023/10/15 00:39:10;;;;;;;8.13;1.30;;;;;;;10.19;94.32;148693.97;4945476;28;20226;-59
2023/10/15 00:41:37;;;;;;;6.50;1.20;;;;;;;10.21;94.39;148696.47;4944361;28;20242;-58
2023/10/15 00:44:09;;;;;;;5.37;1.30;;;;;;;10.21;93.90;148697.69;4940181;29;20230;-59
2023/10/15 00:46:37;;;;;;;4.13;1.13;;;;;;;10.26;93.59;148708.91;4941997;28;20234;-58
2023/10/15 00:49:09;;;;;;;5.30;1.10;;;;;;;10.23;94.45;148702.66;4936811;28;20230;-58
2023/10/15 00:51:41;;;;;;;6.80;1.37;;;;;;;10.26;95.75;148710.13;4942232;28;20223;-58
2023/10/15 00:54:11;;;;;;;7.00;1.20;;;;;;;10.26;94.68;148710.13;4937080;28;20222;-57
2023/10/15 00:56:39;;;;;;;4.83;1.13;;;;;;;10.29;93.14;148716.38;4936679;28;20232;-58
2023/10/15 00:59:13;;;;;;;6.03;1.37;;;;;;;10.32;89.45;148725.09;4942418;28;20235;-58
2023/10/15 01:01:43;;;;;;;7.10;1.20;;;;;;;10.31;93.66;148722.59;4954059;28;20276;-58
2023/10/15 01:04:10;;;;;;;7.00;1.43;;;;;;;10.33;93.72;148727.56;4946820;29;20306;-58
2023/10/15 01:06:40;;;;;;;5.00;1.10;;;;;;;10.32;94.99;148723.84;4939049;28;20310;-58
2023/10/15 01:09:20;;;;;;;9.10;1.17;;;;;;;10.27;95.90;148712.63;4939103;29;20880;-57
2023/10/15 01:11:55;;;;;;;8.60;1.47;;;;;;;10.23;94.44;148701.44;4938850;29;20238;-56
2023/10/15 01:14:28;;;;;;;5.93;1.50;;;;;;;10.24;95.28;148703.94;4945308;28;20816;-58
2023/10/15 01:16:55;;;;;;;5.63;1.20;;;;;;;10.15;94.94;148684.00;4936336;29;20270;-58
2023/10/15 01:19:31;;;;;;;4.70;1.57;;;;;;;10.21;91.53;148696.47;4939574;29;20266;-56
2023/10/15 01:22:02;;;;;;;7.17;1.37;;;;;;;10.23;93.95;148701.44;4936609;28;20236;-58
2023/10/15 01:24:32;;;;;;;7.93;1.30;;;;;;;10.22;94.02;148698.94;4946212;29;20233;-58
2023/10/15 01:27:08;;;;;;;5.50;1.40;;;;;;;10.23;94.92;148701.44;4939786;28;20249;-60
2023/10/15 01:29:36;;;;;;;8.93;1.47;;;;;;;10.19;94.40;148693.97;4939734;29;20281;-57
2023/10/15 01:32:08;;;;;;;6.43;0.90;;;;;;;10.13;98.66;148677.75;4937297;29;20223;-58
2023/10/15 01:34:38;;;;;;;9.13;1.30;;;;;;;10.13;98.95;148679.03;4939286;28;20221;-59
2023/10/15 01:37:13;;;;;;;3.37;1.67;;;;;;;10.16;100.00;148685.22;4936657;29;20235;-59
2023/10/15 01:39:39;;;;;;;5.73;1.30;;;;;;;10.16;98.35;148686.50;4943155;29;20239;-58
2023/10/15 01:42:20;;;;;;;5.83;1.20;;;;;;;10.17;97.10;148689.00;4942326;28;20308;-59
2023/10/15 01:44:48;;;;;;;3.17;1.00;;;;;;;10.11;100.00;148674.03;4937668;28;20241;-59
2023/10/15 01:47:16;;;;;;;5.33;1.40;;;;;;;10.13;99.99;148677.75;4938239;29;20266;-59
2023/10/15 01:49:43;;;;;;;4.87;1.80;;;;;;;10.12;96.71;148676.53;4943050;28;20317;-59
2023/10/15 01:52:22;;;;;;;4.33;1.57;;;;;;;10.15;98.28;148682.75;4938346;29;20233;-58
2023/10/15 01:54:49;;;;;;;7.67;1.43;;;;;;;10.21;94.86;148697.69;4942294;29;20238;-59
2023/10/15 01:57:17;;;;;;;8.97;1.57;;;;;;;10.23;96.76;148701.44;4946198;29;20774;-59
2023/10/15 01:59:46;;;;;;;8.43;1.30;;;;;;;10.26;93.94;148710.13;4938774;28;20326;-58
2023/10/15 02:02:14;;;;;;;7.43;1.33;;;;;;;10.28;90.68;148713.91;4946116;29;20237;-57
2023/10/15 02:04:45;;;;;;;8.63;1.50;;;;;;;10.32;90.05;148725.09;4938643;28;20252;-59
2023/10/15 02:07:16;;;;;;;8.23;1.50;;;;;;;10.37;90.33;148735.03;4941204;29;20251;-59
2023/10/15 02:09:43;;;;;;;5.63;1.40;;;;;;;10.38;91.09;148738.81;4937817;29;20230;-58
2023/10/15 02:12:12;;;;;;;7.33;1.37;;;;;;;10.39;90.12;148740.03;4939535;28;20587;-59
2023/10/15 02:14:43;;;;;;;7.43;1.40;;;;;;;10.39;89.70;148740.03;4952842;28;20282;-60
2023/10/15 02:17:13;;;;;;;8.80;1.30;;;;;;;10.40;90.52;148743.84;4943727;28;20303;-58
2023/10/15 02:19:41;;;;;;;7.40;1.23;;;;;;;10.42;88.45;148747.53;4936500;29;20238;-59
2023/10/15 02:22:12;;;;;;;9.40;1.20;;;;;;;10.43;88.98;148750.03;4945583;29;20248;-59
2023/10/15 02:24:39;;;;;;;5.43;1.23;;;;;;;10.46;92.38;148757.50;4938931;28;20231;-59
2023/10/15 02:27:06;;;;;;;4.20;1.17;;;;;;;10.42;91.32;148748.81;4941745;29;20235;-59
2023/10/15 02:29:41;;;;;;;9.93;1.60;;;;;;;10.41;88.61;148745.06;4945075;29;20333;-59
2023/10/15 02:32:20;;;;;;;4.13;1.40;;;;;;;10.43;87.77;148750.03;4942177;28;20251;-59
2023/10/15 02:34:50;;;;;;;8.03;1.40;;;;;;;10.45;86.61;148755.03;4941591;29;20228;-59
2023/10/15 02:37:18;;;;;;;10.80;1.40;;;;;;;10.46;85.03;148758.78;4944353;29;20586;-59
2023/10/15 02:39:50;;;;;;;4.63;1.60;;;;;;;10.45;86.06;148756.28;4936574;28;20640;-56
2023/10/15 02:42:17;;;;;;;6.57;1.30;;;;;;;10.44;86.66;148753.78;4938443;29;20230;-59
2023/10/15 02:44:43;;;;;;;5.53;1.40;;;;;;;10.44;86.43;148753.78;4941984;28;20235;-58
2023/10/15 02:47:19;;;;;;;8.77;1.70;;;;;;;10.44;85.66;148752.53;4944744;29;20226;-58
2023/10/15 02:49:53;;;;;;;8.13;1.23;;;;;;;10.45;86.88;148755.03;4942480;28;20341;-59
2023/10/15 02:52:21;;;;;;;10.73;1.60;;;;;;;10.42;86.54;148748.81;4939047;28;20304;-59
2023/10/15 02:54:47;;;;;;;9.53;1.40;;;;;;;10.42;87.38;148747.53;4937908;28;20290;-60
2023/10/15 02:57:16;;;;;;;7.67;1.07;;;;;;;10.41;87.65;148746.31;4937769;29;20235;-60
2023/10/15 02:59:50;;;;;;;5.00;1.50;;;;;;;10.36;87.52;148732.56;4939199;28;20800;-59
2023/10/15 03:02:20;;;;;;;5.63;1.63;;;;;;;10.42;88.72;148747.53;4938316;28;20237;-58
2023/10/15 03:04:53;;;;;;;7.27;1.23;;;;;;;10.40;87.40;148743.84;4941442;28;20230;-59
2023/10/15 03:07:25;;;;;;;7.23;1.70;;;;;;;10.37;87.29;148736.31;4952030;28;20907;-59
2023/10/15 03:09:56;;;;;;;7.17;1.40;;;;;;;10.39;87.94;148740.03;4951165;28;20239;-58
2023/10/15 03:12:24;;;;;;;5.30;1.27;;;;;;;10.38;87.19;148738.81;4944153;29;20231;-59
2023/10/15 03:14:52;;;;;;;11.23;1.83;;;;;;;10.39;86.79;148740.03;4934834;28;20317;-59
2023/10/15 03:17:29;;;;;;;12.83;1.40;;;;;;;10.39;86.77;148741.34;4936652;29;20695;-59
2023/10/15 03:19:56;;;;;;;5.90;1.20;;;;;;;10.36;88.29;148733.81;4938827;28;20588;-59
2023/10/15 03:22:24;;;;;;;9.37;1.60;;;;;;;10.31;87.22;148722.59;4939241;28;20257;-59
2023/10/15 03:24:53;;;;;;;3.27;1.30;;;;;;;10.29;88.82;148716.38;4937702;28;20622;-59
2023/10/15 03:27:26;;;;;;;3.80;1.27;;;;;;;10.29;87.43;148716.38;4938301;28;20241;-58
2023/10/15 03:29:56;;;;;;;8.50;1.33;;;;;;;10.26;88.67;148710.13;4935059;28;20273;-58
2023/10/15 03:32:30;;;;;;;6.47;1.70;;;;;;;10.26;90.06;148708.91;5193963;23;20245;-66
2023/10/15 03:34:59;;;;;;;3.70;1.03;;;;;;;10.26;89.28;148708.91;4932437;28;20229;-65
2023/10/15 03:37:27;;;;;;;5.23;1.30;;;;;;;10.26;89.27;148708.91;4940622;28;20706;-65
2023/10/15 03:39:57;;;;;;;4.70;1.30;;;;;;;10.28;89.13;148713.91;4936206;28;20229;-65
2023/10/15 03:42:27;;;;;;;5.63;1.03;;;;;;;10.27;88.74;148712.63;4940926;28;20237;-65
2023/10/15 03:44:59;;;;;;;7.47;1.87;;;;;;;10.27;88.89;148712.63;4935004;28;20235;-65
2023/10/15 03:47:27;;;;;;;9.10;1.50;;;;;;;10.28;89.91;148715.13;4939788;29;20314;-66
2023/10/15 03:49:55;;;;;;;6.93;1.47;;;;;;;10.26;89.73;148708.91;4937630;28;20413;-65
2023/10/15 03:52:22;;;;;;;8.43;2.60;;;;;;;10.27;90.01;148712.63;4938546;28;20325;-65
2023/10/15 03:54:50;;;;;;;6.17;1.30;;;;;;;10.32;91.61;148723.84;4936335;28;20232;-65
2023/10/15 03:57:18;;;;;;;8.60;1.30;;;;;;;10.25;92.22;148706.44;4941932;28;20235;-65
2023/10/15 03:59:51;;;;;;;4.27;1.43;;;;;;;10.27;89.33;148712.63;4934332;28;20345;-65
2023/10/15 04:02:25;;;;;;;9.20;2.03;;;;;;;10.23;91.88;148701.44;4940521;28;20238;-65
2023/10/15 04:05:07;;;;;;;8.40;1.63;;;;;;;10.23;92.60;148702.66;4933954;28;20238;-65
2023/10/15 04:07:39;;;;;;;7.23;1.20;;;;;;;10.23;91.62;148701.44;4939760;28;20244;-65
2023/10/15 04:10:06;;;;;;;6.27;1.50;;;;;;;10.22;92.30;148698.94;4935046;28;20234;-65
2023/10/15 04:12:34;;;;;;;4.93;1.23;;;;;;;10.23;93.03;148702.66;4927638;29;20286;-65
2023/10/15 04:15:02;;;;;;;5.57;0.97;;;;;;;10.23;94.57;148701.44;4936908;28;20318;-65
2023/10/15 04:17:29;;;;;;;8.17;1.83;;;;;;;10.18;96.79;148690.22;4938762;28;20243;-65
2023/10/15 04:19:57;;;;;;;5.73;1.30;;;;;;;10.16;95.32;148686.50;4935901;28;20619;-65
2023/10/15 04:22:24;;;;;;;7.93;1.60;;;;;;;10.14;95.28;148681.53;4937182;28;20719;-65
2023/10/15 04:24:51;;;;;;;11.30;1.90;;;;;;;10.12;96.86;148676.53;4934301;28;20294;-65
2023/10/15 04:27:18;;;;;;;7.03;1.83;;;;;;;10.08;97.19;148665.31;4937793;28;20324;-66
2023/10/15 04:29:49;;;;;;;8.03;1.40;;;;;;;10.03;96.90;148655.41;4935139;28;20653;-66
2023/10/15 04:32:23;;;;;;;3.23;1.20;;;;;;;10.04;96.67;148657.88;4936734;29;20251;-65
2023/10/15 04:34:52;;;;;;;10.80;1.90;;;;;;;10.03;97.48;148654.13;4936066;28;20225;-65
2023/10/15 04:37:23;;;;;;;5.77;1.33;;;;;;;10.02;98.31;148652.91;4939885;28;20245;-65
2023/10/15 04:39:53;;;;;;;10.10;1.50;;;;;;;9.97;98.80;148639.19;4937062;28;20238;-65
2023/10/15 04:42:25;;;;;;;6.83;1.37;;;;;;;9.98;98.43;148641.69;4938035;28;21157;-65
2023/10/15 04:44:53;;;;;;;7.23;1.50;;;;;;;10.00;98.46;148647.94;4934603;28;20238;-65
2023/10/15 04:47:30;;;;;;;10.03;2.20;;;;;;;9.93;98.08;148630.50;4939034;28;20249;-65
2023/10/15 04:49:57;;;;;;;8.60;1.70;;;;;;;9.93;97.89;148630.50;4940239;28;20233;-65
2023/10/15 04:52:26;;;;;;;9.80;1.87;;;;;;;9.89;98.86;148620.53;4940367;28;20238;-65
2023/10/15 04:54:55;;;;;;;9.70;1.60;;;;;;;9.88;99.27;148618.03;4939624;28;20244;-65
2023/10/15 04:57:23;;;;;;;10.63;1.93;;;;;;;9.88;99.32;148618.03;4940571;28;20228;-65
2023/10/15 04:59:50;;;;;;;5.63;1.90;;;;;;;9.89;98.67;148621.75;4939466;28;20333;-65
2023/10/15 05:02:18;;;;;;;7.17;1.70;;;;;;;9.87;99.44;148616.78;4940602;28;20571;-65
2023/10/15 05:04:44;;;;;;;6.60;1.63;;;;;;;9.88;98.05;148618.03;4940691;28;20241;-65
2023/10/15 05:07:15;;;;;;;8.33;1.73;;;;;;;9.89;99.02;148620.53;4943450;28;20571;-65
2023/10/15 05:09:44;;;;;;;6.97;1.80;;;;;;;9.89;99.15;148621.75;4937805;28;20237;-65
2023/10/15 05:12:12;;;;;;;5.47;1.60;;;;;;;9.87;99.00;148616.78;4940425;28;20249;-65
2023/10/15 05:14:38;;;;;;;4.30;1.40;;;;;;;9.88;99.10;148619.25;4942317;28;20257;-65
2023/10/15 05:17:05;;;;;;;5.87;1.90;;;;;;;9.90;100.00;148623.03;4939875;28;20234;-65
2023/10/15 05:19:32;;;;;;;4.23;1.77;;;;;;;9.85;100.00;148611.78;4930872;28;20521;-65
2023/10/15 05:21:58;;;;;;;8.33;2.00;;;;;;;9.89;99.01;148621.75;4933785;28;20234;-65
2023/10/15 05:24:25;;;;;;;5.67;2.07;;;;;;;9.85;100.00;148611.78;4942118;28;20251;-65
2023/10/15 05:26:53;;;;;;;9.73;1.87;;;;;;;9.77;100.00;148590.66;4937492;28;20690;-65
2023/10/15 05:29:20;;;;;;;7.43;2.00;;;;;;;9.67;100.00;148568.25;4942215;28;20229;-65
2023/10/15 05:31:48;;;;;;;3.57;1.60;;;;;;;9.64;100.00;148559.50;4937349;28;20240;-65
2023/10/15 05:34:15;;;;;;;5.43;1.83;;;;;;;9.66;100.00;148565.75;4945730;29;20237;-65
2023/10/15 05:36:41;;;;;;;9.97;1.83;;;;;;;9.51;100.00;148528.41;4938677;28;20241;-65
2023/10/15 05:39:08;;;;;;;7.13;2.10;;;;;;;9.56;100.00;148542.09;4942544;28;20240;-65
2023/10/15 05:41:37;;;;;;;11.17;2.50;;;;;;;9.56;100.00;148542.09;4941705;28;20264;-65
2023/10/15 05:44:05;;;;;;;10.07;1.87;;;;;;;9.49;100.00;148523.44;4938198;28;20235;-65
2023/10/15 05:46:32;;;;;;;8.57;1.97;;;;;;;9.44;100.00;148512.25;4941379;28;20319;-65
2023/10/15 05:49:00;;;;;;;7.03;1.63;;;;;;;9.44;100.00;148513.47;4935431;28;20233;-65
2023/10/15 05:51:27;;;;;;;8.77;2.40;;;;;;;9.43;100.00;148509.78;4946457;29;20241;-65
2023/10/15 05:53:54;;;;;;;8.33;2.07;;;;;;;9.45;100.00;148515.97;4938700;28;20402;-65
2023/10/15 05:56:22;;;;;;;6.53;2.30;;;;;;;9.47;100.00;148518.47;4940418;28;20609;-65
2023/10/15 05:58:48;;;;;;;11.00;4.57;;;;;;;9.52;100.00;148530.91;4939044;28;20245;-65
2023/10/15 06:01:16;;;;;;;8.40;2.70;;;;;;;9.56;100.00;148540.88;4941401;28;20315;-65
2023/10/15 06:03:44;;;;;;;8.13;2.37;;;;;;;9.55;100.00;148539.59;4938900;28;20689;-65
2023/10/15 06:06:10;;;;;;;8.37;4.60;;;;;;;9.57;100.00;148544.56;4936198;29;20258;-65
2023/10/15 06:08:37;;;;;;;6.50;2.30;;;;;;;9.59;100.00;148549.56;4940923;28;20230;-65
2023/10/15 06:11:03;;;;;;;5.23;1.63;;;;;;;9.62;100.00;148555.81;4939545;28;20716;-65
2023/10/15 06:13:30;;;;;;;7.53;1.90;;;;;;;9.63;100.00;148558.28;4922859;28;20238;-65
2023/10/15 06:15:57;;;;;;;6.77;1.63;;;;;;;9.64;100.00;148559.50;4928285;28;20239;-65
2023/10/15 06:18:25;;;;;;;10.37;2.03;;;;;;;9.70;100.00;148575.72;4950213;28;20223;-65
2023/10/15 06:20:51;;;;;;;6.27;1.50;;;;;;;9.75;100.00;148588.16;4927423;28;20233;-65
2023/10/15 06:23:18;;;;;;;4.63;1.60;;;;;;;9.84;100.00;148608.09;4940982;28;20243;-65
2023/10/15 06:25:45;;;;;;;5.97;1.70;;;;;;;9.83;100.00;148606.81;4934929;28;20291;-65
2023/10/15 06:28:14;;;;;;;7.17;1.50;;;;;;;9.88;99.93;148619.25;4940131;28;20590;-65
2023/10/15 06:30:42;;;;;;;9.60;2.80;;;;;;;10.00;97.84;148646.66;4936009;28;20318;-65
2023/10/15 06:33:08;;;;;;;9.77;1.60;;;;;;;9.95;98.34;148634.22;4941587;28;20321;-65
2023/10/15 06:35:36;;;;;;;7.67;1.80;;;;;;;10.04;99.66;148656.63;4938163;28;20231;-65
2023/10/15 06:38:03;;;;;;;8.80;1.87;;;;;;;9.98;98.49;148642.94;4935402;28;20230;-65
2023/10/15 06:40:31;;;;;;;8.10;1.63;;;;;;;9.94;99.56;148632.97;4938243;28;20590;-65
2023/10/15 06:43:01;;;;;;;7.97;1.67;;;;;;;9.93;98.90;148629.22;4937214;28;20243;-65
2023/10/15 06:45:27;;;;;;;4.90;1.63;;;;;;;10.03;98.26;148655.41;4939713;29;20776;-65
2023/10/15 06:47:55;;;;;;;4.53;1.73;;;;;;;10.07;98.42;148664.09;4937161;28;20230;-65
2023/10/15 06:50:23;;;;;;;8.67;1.90;;;;;;;10.08;98.50;148666.59;4937056;28;20239;-65
2023/10/15 06:52:52;;;;;;;8.27;2.13;;;;;;;10.12;98.27;148675.28;4936387;28;20703;-65
2023/10/15 06:55:20;;;;;;;7.03;1.87;;;;;;;10.12;97.63;148675.28;4942655;28;20572;-65
2023/10/15 06:57:48;;;;;;;7.10;1.77;;;;;;;10.13;97.39;148679.03;4937301;28;20234;-65
2023/10/15 07:00:21;;;;;;;9.77;1.90;;;;;;;10.08;96.73;148665.31;4939469;28;20241;-65
2023/10/15 07:02:48;;;;;;;9.13;2.03;;;;;;;10.23;96.56;148702.66;4936778;28;20317;-65
2023/10/15 07:05:16;;;;;;;7.67;1.80;;;;;;;10.47;97.24;148760.00;4938726;28;20249;-65
2023/10/15 07:07:45;;;;;;;8.30;2.00;;;;;;;10.68;96.66;148811.03;4935528;28;20245;-65
2023/10/15 07:10:15;;;;;;;6.80;2.03;;;;;;;10.59;96.06;148788.69;4937268;28;20979;-65
2023/10/15 07:12:45;;;;;;;4.83;1.77;;;;;;;10.54;96.93;148777.44;4937055;28;20285;-65
2023/10/15 07:15:13;;;;;;;6.23;1.73;;;;;;;10.57;95.82;148783.69;4941819;28;20245;-65
2023/10/15 07:17:43;;;;;;;10.63;2.43;;;;;;;10.44;96.21;148753.78;4937929;28;20230;-65
2023/10/15 07:20:15;;;;;;;5.90;1.70;;;;;;;10.44;96.47;148753.78;4936349;28;20235;-65
2023/10/15 07:22:46;;;;;;;9.93;2.67;;;;;;;10.38;96.20;148738.81;4938578;28;20765;-65
2023/10/15 07:25:15;;;;;;;8.17;2.50;;;;;;;10.29;96.98;148716.38;4942033;28;20260;-65
2023/10/15 07:27:45;;;;;;;10.13;2.43;;;;;;;10.12;99.49;148676.53;4937836;28;20251;-65
2023/10/15 07:30:13;;;;;;;12.90;3.37;;;;;;;10.15;99.88;148682.75;4934967;28;20240;-65
2023/10/15 07:32:45;;;;;;;8.20;2.00;;;;;;;10.25;99.00;148706.44;4936292;28;20240;-65
2023/10/15 07:35:14;;;;;;;3.77;1.77;;;;;;;10.05;100.00;148659.09;4940655;28;20233;-65
2023/10/15 07:37:45;;;;;;;6.43;2.43;;;;;;;9.86;100.00;148614.28;4937580;28;20632;-65
2023/10/15 07:40:18;;;;;;;9.23;2.23;;;;;;;10.02;100.00;148651.63;4937742;28;20748;-65
2023/10/15 07:42:46;;;;;;;8.77;2.27;;;;;;;9.86;100.00;148613.06;4936510;28;20258;-65
2023/10/15 07:45:13;;;;;;;6.37;2.40;;;;;;;9.98;100.00;148641.69;4939630;28;20248;-65
2023/10/15 07:47:46;;;;;;;7.57;2.30;;;;;;;10.01;100.00;148649.16;4936944;28;20229;-65
2023/10/15 07:50:16;;;;;;;10.30;2.67;;;;;;;10.25;100.00;148707.66;4939056;28;20233;-65
2023/10/15 07:52:44;;;;;;;8.17;2.50;;;;;;;10.37;98.99;148736.31;4936086;28;20301;-65
2023/10/15 07:55:11;;;;;;;11.63;2.80;;;;;;;10.42;100.00;148747.53;4936402;28;20248;-65
2023/10/15 07:57:45;;;;;;;9.13;3.10;;;;;;;10.44;98.90;148752.53;4938665;28;20232;-65
2023/10/15 08:00:15;;;;;;;11.53;3.43;;;;;;;10.51;96.48;148768.75;4937234;29;20233;-65
2023/10/15 08:02:45;;;;;;;12.73;2.90;;;;;;;10.54;96.42;148776.22;4934356;28;20794;-65
2023/10/15 08:05:11;;;;;;;10.57;2.50;;;;;;;10.81;97.64;148840.94;4939071;28;20713;-65
2023/10/15 08:07:43;;;;;;;11.07;2.67;;;;;;;11.01;95.81;148889.56;4942065;28;20239;-65
2023/10/15 08:10:11;;;;;;;9.63;3.37;;;;;;;10.61;97.89;148793.59;4937926;28;20387;-65
2023/10/15 08:12:45;;;;;;;8.77;2.73;;;;;;;10.99;93.81;148885.78;4935609;28;20302;-65
2023/10/15 08:15:15;;;;;;;8.10;3.33;;;;;;;10.76;94.66;148830.97;4938133;28;20231;-65
2023/10/15 08:17:43;;;;;;;8.13;3.10;;;;;;;10.44;97.85;148753.78;4936893;28;20247;-65
2023/10/15 08:20:10;;;;;;;6.83;2.60;;;;;;;10.22;99.33;148700.19;4937151;28;20222;-65
2023/10/15 08:22:41;;;;;;;10.27;3.50;;;;;;;10.14;99.19;148680.25;4936501;28;20254;-65
2023/10/15 08:25:13;;;;;;;8.60;3.47;;;;;;;10.26;100.00;148708.91;4941683;28;20652;-65
2023/10/15 08:27:45;;;;;;;11.23;3.30;;;;;;;10.44;98.15;148752.53;4936990;29;20268;-65
2023/10/15 08:30:13;;;;;;;12.43;3.50;;;;;;;10.80;96.04;148838.44;4946125;29;20250;-65
2023/10/15 08:32:45;;;;;;;10.33;2.97;;;;;;;10.57;97.11;148783.69;4938564;29;20268;-65
2023/10/15 08:35:13;;;;;;;8.50;3.00;;;;;;;10.63;96.49;148799.84;4941603;28;20976;-65
2023/10/15 08:37:44;;;;;;;9.60;3.57;;;;;;;10.58;96.05;148786.19;4940859;28;20234;-65
2023/10/15 08:40:15;;;;;;;8.67;3.23;;;;;;;10.57;97.21;148784.91;4943590;28;20233;-65
2023/10/15 08:42:51;;;;;;;10.80;2.97;;;;;;;10.62;95.64;148796.09;4939284;28;20297;-65
2023/10/15 08:45:21;;;;;;;8.80;3.07;;;;;;;10.61;95.53;148794.88;4941209;28;20233;-65
2023/10/15 08:47:50;;;;;;;7.07;3.00;;;;;;;10.56;96.34;148782.41;4938924;28;20236;-65
2023/10/15 08:50:20;;;;;;;10.07;3.37;;;;;;;10.53;96.84;148774.94;4940376;28;20683;-65
2023/10/15 08:52:47;;;;;;;11.40;3.20;;;;;;;10.55;95.84;148779.94;4939907;28;20539;-65
2023/10/15 08:55:15;;;;;;;11.97;3.23;;;;;;;10.33;96.29;148726.34;4942061;28;20227;-65
2023/10/15 08:57:45;;;;;;;11.03;3.60;;;;;;;10.27;96.88;148712.63;4935242;28;20233;-65
2023/10/15 09:00:26;;;;;;;8.50;3.30;;;;;;;10.26;95.98;148708.91;4947551;29;20230;-65
2023/10/15 09:02:53;;;;;;;9.80;3.40;;;;;;;10.41;94.77;148745.06;4941476;28;20626;-65
2023/10/15 09:05:20;;;;;;;12.20;3.73;;;;;;;10.56;94.28;148782.41;4943015;28;20246;-65
2023/10/15 09:07:47;;;;;;;7.60;3.20;;;;;;;10.80;91.77;148839.72;4939400;28;20237;-65
2023/10/15 09:10:16;;;;;;;8.33;3.53;;;;;;;11.30;90.22;148959.28;4942899;29;20219;-65
2023/10/15 09:12:45;;;;;;;9.30;3.17;;;;;;;11.31;88.60;148961.78;4937872;28;20265;-65
2023/10/15 09:15:16;;;;;;;8.03;3.00;;;;;;;11.64;86.71;149041.53;4941799;28;20294;-65
2023/10/15 09:17:49;;;;;;;7.30;2.83;;;;;;;11.99;84.20;149126.31;4937477;28;20231;-65
2023/10/15 09:20:25;;;;;;;10.63;3.20;;;;;;;11.74;84.27;149065.19;4941401;29;20590;-65
2023/10/15 09:22:52;;;;;;;9.97;2.80;;;;;;;11.56;85.91;149022.88;4937810;28;20232;-65
2023/10/15 09:25:19;;;;;;;15.47;3.20;;;;;;;11.54;86.44;149016.63;4932137;28;20252;-65
2023/10/15 09:27:47;;;;;;;7.53;3.10;;;;;;;11.27;87.01;148953.06;4937972;28;20239;-65
2023/10/15 09:30:19;;;;;;;7.40;2.27;;;;;;;11.46;86.15;148999.16;4929887;29;20244;-65
2023/10/15 09:32:46;;;;;;;7.40;2.57;;;;;;;11.62;83.49;149036.56;4920536;28;20683;-65
2023/10/15 09:35:14;;;;;;;6.13;1.90;;;;;;;11.75;81.56;149068.97;4939153;28;20240;-65
2023/10/15 09:37:44;;;;;;;3.37;1.70;;;;;;;11.71;78.61;149057.72;4937069;28;20330;-65
2023/10/15 09:40:18;;;;;;;4.93;1.73;;;;;;;11.48;78.44;149004.16;4943216;28;20372;-65
2023/10/15 09:42:49;;;;;;;11.03;2.80;;;;;;;11.25;76.48;148946.81;4938565;28;20243;-65
2023/10/15 09:45:19;;;;;;;7.17;2.10;;;;;;;10.99;79.03;148885.78;4941153;28;20235;-65
2023/10/15 09:47:49;;;;;;;5.47;1.93;;;;;;;11.02;78.29;148892.03;4941802;28;20254;-65
2023/10/15 09:50:24;;;;;;;6.20;2.20;;;;;;;11.16;77.58;148926.88;4939687;28;20758;-65
2023/10/15 09:52:55;;;;;;;5.07;1.97;;;;;;;11.57;78.39;149024.09;4936740;28;20245;-65
2023/10/15 09:55:27;;;;;;;6.83;1.67;;;;;;;11.72;76.05;149061.47;4941074;29;20595;-65
2023/10/15 09:57:56;;;;;;;5.57;1.70;;;;;;;11.99;73.41;149125.03;4940466;28;20239;-66
2023/10/15 10:00:46;;;;;;;5.57;2.00;;;;;;;12.04;73.06;149137.56;4941782;28;20231;-66
2023/10/15 10:03:48;;;;;;;7.67;1.43;;;;;;;11.40;69.13;148984.22;4937427;28;20285;-65
2023/10/15 10:06:24;;;;;;;6.17;1.90;;;;;;;11.93;69.22;149112.56;4930846;28;20246;-65
2023/10/15 10:09:21;;;;;;;5.13;1.90;;;;;;;11.75;68.04;149067.69;4938565;28;20233;-65
2023/10/15 10:11:59;;;;;;;7.10;1.80;;;;;;;11.57;70.99;149024.09;4937404;28;20701;-65
2023/10/15 10:14:44;;;;;;;6.17;2.40;;;;;;;11.59;70.73;149029.06;4940271;28;20235;-65
2023/10/15 10:17:13;;;;;;;6.30;1.73;;;;;;;11.36;71.29;148974.25;4937605;28;20685;-65
2023/10/15 10:19:40;;;;;;;4.77;1.67;;;;;;;11.37;73.27;148978.00;4936289;28;20236;-65
2023/10/15 10:22:20;;;;;;;7.33;1.93;;;;;;;10.90;73.32;148863.38;4939109;28;20576;-65
2023/10/15 10:24:47;;;;;;;8.97;1.67;;;;;;;10.90;74.19;148864.63;4939300;28;20234;-65
2023/10/15 10:27:15;;;;;;;5.87;1.93;;;;;;;10.85;73.47;148850.91;4940482;28;20286;-65
2023/10/15 10:29:44;;;;;;;4.97;1.60;;;;;;;10.72;74.12;148821.00;4939440;28;20231;-65
2023/10/15 10:32:13;;;;;;;7.60;1.63;;;;;;;10.76;73.46;148830.97;4938366;28;20222;-65
2023/10/15 10:34:40;;;;;;;5.00;1.90;;;;;;;10.77;73.66;148832.25;4937519;28;20227;-65
2023/10/15 10:37:20;;;;;;;5.40;1.37;;;;;;;11.04;71.88;148897.03;4941037;28;20231;-65
2023/10/15 10:39:48;;;;;;;9.87;1.77;;;;;;;11.03;69.93;148895.75;4936894;28;20227;-65
2023/10/15 10:42:23;;;;;;;7.70;1.73;;;;;;;11.14;70.12;148921.91;4941762;28;20756;-65
2023/10/15 10:44:51;;;;;;;3.27;1.27;;;;;;;11.24;70.97;148945.59;4938780;28;20282;-65
2023/10/15 10:47:23;;;;;;;4.63;1.60;;;;;;;11.27;69.80;148951.81;4940541;28;20235;-65
2023/10/15 10:49:56;;;;;;;4.57;1.77;;;;;;;11.30;68.65;148959.28;4938425;28;20234;-65
2023/10/15 10:52:29;;;;;;;4.67;1.40;;;;;;;11.27;68.53;148951.81;4941325;28;20278;-65
2023/10/15 10:54:58;;;;;;;8.73;1.30;;;;;;;11.11;66.21;148914.47;4936691;28;20235;-65
2023/10/15 10:57:31;;;;;;;4.00;1.60;;;;;;;11.27;67.82;148953.06;4937784;28;20235;-65
2023/10/15 11:00:01;;;;;;;4.43;1.00;;;;;;;11.38;65.02;148979.22;4936213;28;20615;-65
2023/10/15 11:02:28;;;;;;;3.53;0.97;;;;;;;11.62;65.00;149036.56;4941389;28;20693;-65
2023/10/15 11:04:54;;;;;;;4.03;1.30;;;;;;;11.89;65.54;149101.38;4936657;29;20238;-65
2023/10/15 11:07:21;;;;;;;6.03;1.30;;;;;;;11.96;65.31;149120.06;4940585;28;20231;-65
2023/10/15 11:09:48;;;;;;;4.73;1.57;;;;;;;12.51;64.84;149251.00;4934249;28;20570;-66
2023/10/15 11:12:18;;;;;;;4.57;0.87;;;;;;;12.51;61.73;149251.00;4940180;28;20238;-65
2023/10/15 11:14:45;;;;;;;4.53;1.30;;;;;;;12.36;61.52;149216.09;4937081;28;20719;-65
2023/10/15 11:17:13;;;;;;;5.40;1.40;;;;;;;12.16;61.49;149166.25;4940426;28;20735;-65
2023/10/15 11:19:40;;;;;;;4.03;1.30;;;;;;;12.19;61.06;149173.72;4935894;28;20237;-65
2023/10/15 11:22:06;;;;;;;4.80;0.70;;;;;;;11.78;63.42;149076.44;4940020;29;20368;-65
2023/10/15 11:24:33;;;;;;;5.30;1.13;;;;;;;11.72;61.64;149060.22;4939518;28;20226;-65
2023/10/15 11:27:00;;;;;;;5.03;1.10;;;;;;;12.25;61.57;149188.66;4951572;28;20239;-65
2023/10/15 11:29:27;;;;;;;5.17;0.97;;;;;;;12.46;60.73;149239.81;4937502;28;20241;-65
2023/10/15 11:31:56;;;;;;;7.00;0.93;;;;;;;13.02;59.60;149374.47;4935914;28;20425;-65
2023/10/15 11:34:26;;;;;;;4.07;0.83;;;;;;;12.85;60.91;149333.31;4935829;28;20278;-65
2023/10/15 11:36:55;;;;;;;5.37;1.10;;;;;;;12.49;59.08;149247.28;4937931;28;20322;-65